createdAt,value
2017-11-24T00:00:53.949Z,4.00
2017-11-24T00:03:21.479Z,4.10
2017-11-24T00:05:48.995Z,4.20
2017-11-24T00:08:16.509Z,4.40
2017-11-24T00:10:44.114Z,4.00
2017-11-24T00:13:11.639Z,3.67
2017-11-24T00:15:39.130Z,4.33
2017-11-24T00:18:06.662Z,3.63
2017-11-24T00:20:34.154Z,4.17
2017-11-24T00:23:01.702Z,4.20
2017-11-24T00:25:29.432Z,4.23
2017-11-24T00:27:56.912Z,4.03
2017-11-24T00:30:24.382Z,4.67
2017-11-24T00:32:51.829Z,3.97
2017-11-24T00:35:19.366Z,4.40
2017-11-24T00:37:46.825Z,4.00
2017-11-24T00:40:14.409Z,3.90
2017-11-24T00:42:41.904Z,4.07
2017-11-24T00:45:09.379Z,4.10
2017-11-24T00:47:36.878Z,3.93
2017-11-24T00:50:04.374Z,4.67
2017-11-24T00:52:31.889Z,4.13
2017-11-24T00:54:59.364Z,4.30
2017-11-24T00:57:26.797Z,4.20
2017-11-24T00:59:54.667Z,4.33
2017-11-24T01:02:22.124Z,4.57
2017-11-24T01:04:49.629Z,4.40
2017-11-24T01:07:17.110Z,4.10
2017-11-24T01:09:44.548Z,4.07
2017-11-24T01:12:12.009Z,3.93
2017-11-24T01:14:39.662Z,4.60
2017-11-24T01:17:07.127Z,4.20
2017-11-24T01:19:34.568Z,3.83
2017-11-24T01:22:02.064Z,4.23
2017-11-24T01:24:29.576Z,4.20
2017-11-24T01:26:57.085Z,3.90
2017-11-24T01:29:24.637Z,4.13
2017-11-24T01:31:52.121Z,4.40
2017-11-24T01:34:19.597Z,4.33
2017-11-24T01:36:47.076Z,4.27
2017-11-24T01:39:14.537Z,4.33
2017-11-24T01:41:41.973Z,4.10
2017-11-24T01:44:09.465Z,4.33
2017-11-24T01:46:36.920Z,4.30
2017-11-24T01:49:04.368Z,4.70
2017-11-24T01:51:32.766Z,4.60
2017-11-24T01:54:00.270Z,4.43
2017-11-24T01:56:27.860Z,4.60
2017-11-24T01:58:56.473Z,4.53
2017-11-24T02:01:23.983Z,4.40
2017-11-24T02:03:51.420Z,3.93
2017-11-24T02:06:18.871Z,4.13
2017-11-24T02:08:46.325Z,4.17
2017-11-24T02:11:13.777Z,4.37
2017-11-24T02:13:41.335Z,4.50
2017-11-24T02:16:08.782Z,4.70
2017-11-24T02:18:36.237Z,4.00
2017-11-24T02:21:03.892Z,4.20
2017-11-24T02:23:32.334Z,4.20
2017-11-24T02:25:59.913Z,4.30
2017-11-24T02:28:27.506Z,4.30
2017-11-24T02:30:55.056Z,4.00
2017-11-24T02:33:22.728Z,4.17
2017-11-24T02:35:50.335Z,4.03
2017-11-24T02:38:17.899Z,4.03
2017-11-24T02:40:45.478Z,4.03
2017-11-24T02:46:05.585Z,4.33
2017-11-24T02:48:33.099Z,4.20
2017-11-24T02:51:00.610Z,4.13
2017-11-24T02:53:30.038Z,4.10
2017-11-24T02:55:57.502Z,3.90
2017-11-24T02:58:25.404Z,4.10
2017-11-24T03:00:52.995Z,4.43
2017-11-24T03:03:20.511Z,4.70
2017-11-24T03:05:47.970Z,4.13
2017-11-24T03:08:15.478Z,4.13
2017-11-24T03:10:42.962Z,3.90
2017-11-24T03:13:10.512Z,3.90
2017-11-24T03:15:38.646Z,4.50
2017-11-24T03:18:06.116Z,4.60
2017-11-24T03:20:33.578Z,4.07
2017-11-24T03:23:01.782Z,4.30
2017-11-24T03:25:29.376Z,4.30
2017-11-24T03:27:56.836Z,4.23
2017-11-24T03:30:24.274Z,4.40
2017-11-24T03:32:51.832Z,4.30
2017-11-24T03:35:19.672Z,3.87
2017-11-24T03:37:47.128Z,4.40
2017-11-24T03:40:14.678Z,4.10
2017-11-24T03:45:34.646Z,4.30
2017-11-24T03:48:02.164Z,4.33
2017-11-24T03:50:29.679Z,4.30
2017-11-24T03:52:57.263Z,4.67
2017-11-24T03:55:24.795Z,4.70
2017-11-24T03:57:52.256Z,4.60
2017-11-24T04:00:19.996Z,4.10
2017-11-24T04:02:47.532Z,4.83
2017-11-24T04:05:15.134Z,4.40
2017-11-24T04:07:42.621Z,4.27
2017-11-24T04:10:11.280Z,4.77
2017-11-24T04:12:38.794Z,5.53
2017-11-24T04:15:06.612Z,4.47
2017-11-24T04:17:34.121Z,4.60
2017-11-24T04:20:01.686Z,4.30
2017-11-24T04:22:29.136Z,4.73
2017-11-24T04:24:56.735Z,5.20
2017-11-24T04:27:24.305Z,4.80
2017-11-24T04:29:51.816Z,4.53
2017-11-24T04:32:19.318Z,3.97
2017-11-24T04:34:47.612Z,3.83
2017-11-24T04:37:15.166Z,4.20
2017-11-24T04:39:42.636Z,4.57
2017-11-24T04:42:10.161Z,4.43
2017-11-24T04:44:37.685Z,4.37
2017-11-24T04:47:05.190Z,4.53
2017-11-24T04:49:32.922Z,4.30
2017-11-24T04:52:00.502Z,4.43
2017-11-24T04:54:27.986Z,4.10
2017-11-24T04:56:55.534Z,4.40
2017-11-24T04:59:23.061Z,4.40
2017-11-24T05:01:55.792Z,4.27
2017-11-24T05:04:23.395Z,4.20
2017-11-24T05:06:50.908Z,4.30
2017-11-24T05:09:18.432Z,3.80
2017-11-24T05:11:45.965Z,3.70
2017-11-24T05:14:13.426Z,4.30
2017-11-24T05:16:40.933Z,3.90
2017-11-24T05:19:08.849Z,4.23
2017-11-24T05:21:36.442Z,4.40
2017-11-24T05:24:03.924Z,4.50
2017-11-24T05:26:31.399Z,4.27
2017-11-24T05:28:58.915Z,4.37
2017-11-24T05:31:26.426Z,3.87
2017-11-24T05:33:53.928Z,4.03
2017-11-24T05:36:21.440Z,4.40
2017-11-24T05:38:48.985Z,4.40
2017-11-24T05:41:16.591Z,4.00
2017-11-24T05:44:07.758Z,4.27
2017-11-24T05:46:35.255Z,4.50
2017-11-24T05:49:02.729Z,4.00
2017-11-24T05:51:30.305Z,3.90
2017-11-24T05:54:12.013Z,4.03
2017-11-24T05:56:39.491Z,4.47
2017-11-24T05:59:07.107Z,4.57
2017-11-24T06:01:34.841Z,4.27
2017-11-24T06:04:02.329Z,4.03
2017-11-24T06:06:29.884Z,4.20
2017-11-24T06:08:57.382Z,4.30
2017-11-24T06:11:24.868Z,3.97
2017-11-24T06:13:57.341Z,4.03
2017-11-24T06:16:24.889Z,4.73
2017-11-24T06:18:52.351Z,4.30
2017-11-24T06:21:19.920Z,3.90
2017-11-24T06:23:47.410Z,4.93
2017-11-24T06:26:14.968Z,4.23
2017-11-24T06:28:42.466Z,3.77
2017-11-24T06:31:09.899Z,4.40
2017-11-24T06:33:37.524Z,4.03
2017-11-24T06:36:05.012Z,3.77
2017-11-24T06:38:32.464Z,3.90
2017-11-24T06:40:59.973Z,4.27
2017-11-24T06:43:27.574Z,3.93
2017-11-24T06:45:55.076Z,4.07
2017-11-24T06:48:22.643Z,4.03
2017-11-24T06:50:50.149Z,4.00
2017-11-24T06:53:17.694Z,4.40
2017-11-24T06:55:45.171Z,3.97
2017-11-24T06:58:12.660Z,4.50
2017-11-24T07:00:40.627Z,4.30
2017-11-24T07:03:08.168Z,4.23
2017-11-24T07:05:35.821Z,4.50
2017-11-24T07:08:03.354Z,3.60
2017-11-24T07:10:31.565Z,4.37
2017-11-24T07:13:08.926Z,3.90
2017-11-24T07:15:37.429Z,3.80
2017-11-24T07:18:04.909Z,3.37
2017-11-24T07:20:32.513Z,4.60
2017-11-24T07:23:00.440Z,3.97
2017-11-24T07:25:28.245Z,3.80
2017-11-24T07:27:56.753Z,4.10
2017-11-24T07:30:24.494Z,4.40
2017-11-24T07:32:52.086Z,4.10
2017-11-24T07:35:19.664Z,4.10
2017-11-24T07:37:47.316Z,3.93
2017-11-24T07:40:14.900Z,4.40
2017-11-24T07:42:42.626Z,4.47
2017-11-24T07:45:10.212Z,3.97
2017-11-24T07:47:37.803Z,3.70
2017-11-24T07:50:05.735Z,3.83
2017-11-24T07:52:33.522Z,3.40
2017-11-24T07:55:01.113Z,4.60
2017-11-24T07:57:28.563Z,3.70
2017-11-24T07:59:56.064Z,3.90
2017-11-24T08:02:24.593Z,3.90
2017-11-24T08:04:52.098Z,4.20
2017-11-24T08:07:19.775Z,3.90
2017-11-24T08:09:47.406Z,4.17
2017-11-24T08:12:14.975Z,4.20
2017-11-24T08:14:42.551Z,3.77
2017-11-24T08:17:10.292Z,4.23
2017-11-24T08:19:38.091Z,3.67
2017-11-24T08:22:05.640Z,3.83
2017-11-24T08:24:33.151Z,3.93
2017-11-24T08:27:00.841Z,3.90
2017-11-24T08:29:28.343Z,4.20
2017-11-24T08:34:48.984Z,4.30
2017-11-24T08:37:16.900Z,3.87
2017-11-24T08:39:44.547Z,3.90
2017-11-24T08:42:14.611Z,4.23
2017-11-24T08:44:42.183Z,4.17
2017-11-24T08:47:15.396Z,3.70
2017-11-24T08:49:46.937Z,3.80
2017-11-24T08:52:14.507Z,3.97
2017-11-24T08:54:42.225Z,4.50
2017-11-24T08:57:09.723Z,3.83
2017-11-24T08:59:37.297Z,4.43
2017-11-24T09:02:10.120Z,3.70
2017-11-24T09:04:37.626Z,4.00
2017-11-24T09:07:05.185Z,3.63
2017-11-24T09:09:32.691Z,3.90
2017-11-24T09:12:00.409Z,4.10
2017-11-24T09:14:27.992Z,3.70
2017-11-24T09:16:55.455Z,3.97
2017-11-24T09:19:22.927Z,3.70
2017-11-24T09:21:55.494Z,4.00
2017-11-24T09:24:22.946Z,4.03
2017-11-24T09:26:51.122Z,3.80
2017-11-24T09:29:18.580Z,4.00
2017-11-24T09:31:46.246Z,4.43
2017-11-24T09:34:13.698Z,3.60
2017-11-24T09:36:41.273Z,3.63
2017-11-24T09:39:08.728Z,3.87
2017-11-24T09:41:36.277Z,3.43
2017-11-24T09:44:08.657Z,3.93
2017-11-24T09:46:36.120Z,4.17
2017-11-24T09:49:03.685Z,4.23
2017-11-24T09:51:31.465Z,4.20
2017-11-24T09:53:58.947Z,3.83
2017-11-24T09:56:26.554Z,4.10
2017-11-24T09:58:54.013Z,4.20
2017-11-24T10:01:21.454Z,3.67
2017-11-24T10:03:48.987Z,4.23
2017-11-24T10:06:16.503Z,4.30
2017-11-24T10:08:44.059Z,3.97
2017-11-24T10:11:11.640Z,3.87
2017-11-24T10:13:39.164Z,4.37
2017-11-24T10:16:06.669Z,3.80
2017-11-24T10:18:34.153Z,3.63
2017-11-24T10:21:07.324Z,3.77
2017-11-24T10:23:34.831Z,4.10
2017-11-24T10:26:02.372Z,4.27
2017-11-24T10:28:30.410Z,3.57
2017-11-24T10:30:59.602Z,4.00
2017-11-24T10:33:27.163Z,3.80
2017-11-24T10:35:54.720Z,3.73
2017-11-24T10:38:22.281Z,4.00
2017-11-24T10:40:49.999Z,3.93
2017-11-24T10:43:17.500Z,4.13
2017-11-24T10:45:45.108Z,3.87
2017-11-24T10:48:13.470Z,3.67
2017-11-24T10:50:42.057Z,3.87
2017-11-24T10:53:14.554Z,3.63
2017-11-24T10:55:42.143Z,3.73
2017-11-24T10:58:10.448Z,3.40
2017-11-24T11:00:39.859Z,3.80
2017-11-24T11:03:07.345Z,3.57
2017-11-24T11:05:36.619Z,3.93
2017-11-24T11:08:04.149Z,3.93
2017-11-24T11:10:31.895Z,3.53
2017-11-24T11:12:59.376Z,4.30
2017-11-24T11:15:28.692Z,4.47
2017-11-24T11:17:56.293Z,4.00
2017-11-24T11:20:24.181Z,4.40
2017-11-24T11:22:51.961Z,3.90
2017-11-24T11:25:19.540Z,3.93
2017-11-24T11:27:47.086Z,4.10
2017-11-24T11:30:14.562Z,3.60
2017-11-24T11:32:42.252Z,3.63
2017-11-24T11:35:10.146Z,4.33
2017-11-24T11:37:38.073Z,3.57
2017-11-24T11:40:05.667Z,4.03
2017-11-24T11:42:33.975Z,3.83
2017-11-24T11:45:01.472Z,3.90
2017-11-24T11:47:28.970Z,4.20
2017-11-24T11:49:57.469Z,3.87
2017-11-24T11:52:25.068Z,3.87
2017-11-24T11:54:55.788Z,3.53
2017-11-24T11:57:23.570Z,3.97
2017-11-24T11:59:51.286Z,3.57
2017-11-24T12:02:18.859Z,3.17
2017-11-24T12:04:47.402Z,3.50
2017-11-24T12:07:15.016Z,4.00
2017-11-24T12:09:42.572Z,3.97
2017-11-24T12:12:10.151Z,4.37
2017-11-24T12:14:37.857Z,3.80
2017-11-24T12:17:05.400Z,3.80
2017-11-24T12:19:32.858Z,3.40
2017-11-24T12:22:00.486Z,3.53
2017-11-24T12:24:28.005Z,3.70
2017-11-24T12:26:55.457Z,3.67
2017-11-24T12:29:22.978Z,4.00
2017-11-24T12:31:51.208Z,3.80
2017-11-24T12:34:18.724Z,4.17
2017-11-24T12:36:46.215Z,3.90
2017-11-24T12:39:13.849Z,4.07
2017-11-24T12:41:41.442Z,3.90
2017-11-24T12:44:08.912Z,4.03
2017-11-24T12:46:36.459Z,3.53
2017-11-24T12:49:04.142Z,4.07
2017-11-24T12:51:31.683Z,3.50
2017-11-24T12:53:59.304Z,3.80
2017-11-24T12:56:26.807Z,3.50
2017-11-24T12:58:54.298Z,3.77
2017-11-24T13:01:21.864Z,3.90
2017-11-24T13:03:49.389Z,3.83
2017-11-24T13:06:17.021Z,3.90
2017-11-24T13:08:44.597Z,4.60
2017-11-24T13:11:12.143Z,3.90
2017-11-24T13:13:49.525Z,3.77
2017-11-24T13:16:17.826Z,3.80
2017-11-24T13:18:45.368Z,3.73
2017-11-24T13:21:12.935Z,3.50
2017-11-24T13:23:54.647Z,3.40
2017-11-24T13:26:22.271Z,3.67
2017-11-24T13:28:49.883Z,3.40
2017-11-24T13:31:17.423Z,3.33
2017-11-24T13:33:45.057Z,3.63
2017-11-24T13:36:12.571Z,3.57
2017-11-24T13:38:40.061Z,3.70
2017-11-24T13:41:07.571Z,3.40
2017-11-24T13:43:35.097Z,3.37
2017-11-24T13:46:02.552Z,3.90
2017-11-24T13:48:30.015Z,3.67
2017-11-24T13:50:57.483Z,3.57
2017-11-24T13:53:24.993Z,3.83
2017-11-24T13:55:53.799Z,3.50
2017-11-24T13:58:21.278Z,3.57
2017-11-24T14:00:48.822Z,3.60
2017-11-24T14:03:16.476Z,2.90
2017-11-24T14:05:43.967Z,3.30
2017-11-24T14:08:11.528Z,3.50
2017-11-24T14:10:41.954Z,3.60
2017-11-24T14:13:28.240Z,3.20
2017-11-24T14:15:55.800Z,3.67
2017-11-24T14:18:23.367Z,3.77
2017-11-24T14:20:51.317Z,3.73
2017-11-24T14:23:20.615Z,3.57
2017-11-24T14:25:49.927Z,3.80
2017-11-24T14:28:17.694Z,3.60
2017-11-24T14:30:45.769Z,4.27
2017-11-24T14:33:13.499Z,3.87
2017-11-24T14:35:41.065Z,3.50
2017-11-24T14:38:08.658Z,3.90
2017-11-24T14:40:36.127Z,3.70
2017-11-24T14:43:04.639Z,4.03
2017-11-24T14:45:32.258Z,4.00
2017-11-24T14:47:59.878Z,3.60
2017-11-24T14:50:27.776Z,3.87
2017-11-24T14:52:55.266Z,3.67
2017-11-24T14:55:22.751Z,4.27
2017-11-24T14:57:50.369Z,4.07
2017-11-24T15:00:17.926Z,4.07
2017-11-24T15:02:55.198Z,4.13
2017-11-24T15:05:22.808Z,4.83
2017-11-24T15:07:52.062Z,5.30
2017-11-24T15:10:21.571Z,4.20
2017-11-24T15:12:50.641Z,4.60
2017-11-24T15:15:19.181Z,3.90
2017-11-24T15:17:47.010Z,4.20
2017-11-24T15:20:15.381Z,3.90
2017-11-24T15:22:42.983Z,4.73
2017-11-24T15:25:11.634Z,4.20
2017-11-24T15:27:39.370Z,4.20
2017-11-24T15:30:06.889Z,5.07
2017-11-24T15:32:44.146Z,4.50
2017-11-24T15:35:12.393Z,4.23
2017-11-24T15:37:40.395Z,4.07
2017-11-24T15:40:07.968Z,4.50
2017-11-24T15:42:35.588Z,3.50
2017-11-24T15:45:04.342Z,3.37
2017-11-24T15:47:32.390Z,3.20
2017-11-24T15:50:00.358Z,3.63
2017-11-24T15:52:28.245Z,3.90
2017-11-24T15:54:56.565Z,4.23
2017-11-24T15:57:24.059Z,4.20
2017-11-24T15:59:51.567Z,3.80
2017-11-24T16:02:19.444Z,4.73
2017-11-24T16:04:47.269Z,5.10
2017-11-24T16:07:14.859Z,5.27
2017-11-24T16:09:42.390Z,5.83
2017-11-24T16:12:10.193Z,6.20
2017-11-24T16:14:38.010Z,6.50
2017-11-24T16:17:05.706Z,5.67
2017-11-24T16:19:34.289Z,6.47
2017-11-24T16:22:01.958Z,7.03
2017-11-24T16:24:29.718Z,6.50
2017-11-24T16:26:57.539Z,7.00
2017-11-24T16:29:25.289Z,7.60
2017-11-24T16:31:52.879Z,7.77
2017-11-24T16:34:20.501Z,7.23
2017-11-24T16:36:49.099Z,7.33
2017-11-24T16:39:16.700Z,6.60
2017-11-24T16:41:44.301Z,6.83
2017-11-24T16:44:12.046Z,7.57
2017-11-24T16:46:40.020Z,7.23
2017-11-24T16:49:07.505Z,8.63
2017-11-24T16:51:35.096Z,8.87
2017-11-24T16:54:17.079Z,9.07
2017-11-24T16:56:45.114Z,9.17
2017-11-24T16:59:13.594Z,8.93
2017-11-24T17:01:41.247Z,9.13
2017-11-24T17:04:09.004Z,9.37
2017-11-24T17:06:36.591Z,10.10
2017-11-24T17:09:04.278Z,10.83
2017-11-24T17:11:31.992Z,10.33
2017-11-24T17:13:59.752Z,10.30
2017-11-24T17:16:27.384Z,9.53
2017-11-24T17:18:54.932Z,10.10
2017-11-24T17:21:22.536Z,9.13
2017-11-24T17:23:50.180Z,9.97
2017-11-24T17:26:17.825Z,10.87
2017-11-24T17:28:45.427Z,9.13
2017-11-24T17:31:20.242Z,9.73
2017-11-24T17:34:07.252Z,10.63
2017-11-24T17:36:35.057Z,10.03
2017-11-24T17:39:02.864Z,9.93
2017-11-24T17:41:31.342Z,9.93
2017-11-24T17:43:59.368Z,9.83
2017-11-24T17:46:27.025Z,11.17
2017-11-24T17:48:54.675Z,10.47
2017-11-24T17:51:22.339Z,10.70
2017-11-24T17:53:49.961Z,10.90
2017-11-24T17:56:17.615Z,11.97
2017-11-24T17:58:46.896Z,11.07
2017-11-24T18:01:14.415Z,11.03
2017-11-24T18:04:01.652Z,11.03
2017-11-24T18:06:29.171Z,10.77
2017-11-24T18:08:56.680Z,10.10
2017-11-24T18:11:24.215Z,11.27
2017-11-24T18:13:51.766Z,10.83
2017-11-24T18:16:19.242Z,10.70
2017-11-24T18:18:47.303Z,13.53
2017-11-24T18:21:14.916Z,12.10
2017-11-24T18:23:47.588Z,12.00
2017-11-24T18:26:15.171Z,13.53
2017-11-24T18:28:42.718Z,11.80
2017-11-24T18:31:10.264Z,12.67
2017-11-24T18:33:37.806Z,13.57
2017-11-24T18:36:05.658Z,13.33
2017-11-24T18:38:33.180Z,14.20
2017-11-24T18:41:00.778Z,13.20
2017-11-24T18:43:28.353Z,13.03
2017-11-24T18:45:56.016Z,13.17
2017-11-24T18:48:23.737Z,13.07
2017-11-24T18:50:51.308Z,14.03
2017-11-24T18:53:18.783Z,14.23
2017-11-24T18:55:46.323Z,14.33
2017-11-24T18:58:14.200Z,13.23
2017-11-24T19:00:41.958Z,14.33
2017-11-24T19:03:23.879Z,13.50
2017-11-24T19:05:51.661Z,13.87
2017-11-24T19:08:19.779Z,13.73
2017-11-24T19:10:47.243Z,12.50
2017-11-24T19:13:34.806Z,13.27
2017-11-24T19:16:02.401Z,14.87
2017-11-24T19:18:29.957Z,13.20
2017-11-24T19:20:57.536Z,13.17
2017-11-24T19:23:25.114Z,14.70
2017-11-24T19:25:52.666Z,15.50
2017-11-24T19:28:20.406Z,14.20
2017-11-24T19:30:48.014Z,14.97
2017-11-24T19:33:15.575Z,14.43
2017-11-24T19:35:43.128Z,14.97
2017-11-24T19:38:10.668Z,14.77
2017-11-24T19:40:38.347Z,15.50
2017-11-24T19:43:05.941Z,15.37
2017-11-24T19:45:33.601Z,18.03
2017-11-24T19:48:01.120Z,17.87
2017-11-24T19:50:28.885Z,19.37
2017-11-24T19:52:56.525Z,24.00
2017-11-24T19:55:24.067Z,19.87
2017-11-24T19:57:51.745Z,17.87
2017-11-24T20:00:19.214Z,17.13
2017-11-24T20:02:51.767Z,17.03
2017-11-24T20:05:19.583Z,16.13
2017-11-24T20:07:47.183Z,16.27
2017-11-24T20:10:14.713Z,16.37
2017-11-24T20:12:42.274Z,17.20
2017-11-24T20:15:10.132Z,16.23
2017-11-24T20:17:37.691Z,16.03
2017-11-24T20:20:05.310Z,16.13
2017-11-24T20:22:32.829Z,17.33
2017-11-24T20:25:00.635Z,15.20
2017-11-24T20:27:28.290Z,16.60
2017-11-24T20:29:55.896Z,16.97
2017-11-24T20:32:37.924Z,16.07
2017-11-24T20:35:05.532Z,16.77
2017-11-24T20:37:33.091Z,16.70
2017-11-24T20:40:00.657Z,16.10
2017-11-24T20:42:29.011Z,14.50
2017-11-24T20:44:56.570Z,14.73
2017-11-24T20:47:24.244Z,16.97
2017-11-24T20:49:51.880Z,16.43
2017-11-24T20:52:21.901Z,17.00
2017-11-24T20:54:49.708Z,16.67
2017-11-24T20:57:17.524Z,16.87
2017-11-24T20:59:45.390Z,16.30
2017-11-24T21:02:12.965Z,16.23
2017-11-24T21:04:40.460Z,15.77
2017-11-24T21:07:08.206Z,15.20
2017-11-24T21:09:35.810Z,15.73
2017-11-24T21:12:03.377Z,15.43
2017-11-24T21:14:31.184Z,15.60
2017-11-24T21:16:58.736Z,14.53
2017-11-24T21:19:26.542Z,14.70
2017-11-24T21:21:54.003Z,13.93
2017-11-24T21:24:22.200Z,13.73
2017-11-24T21:26:49.812Z,13.87
2017-11-24T21:29:17.340Z,17.20
2017-11-24T21:31:44.998Z,15.83
2017-11-24T21:34:27.033Z,17.23
2017-11-24T21:36:56.190Z,16.53
2017-11-24T21:39:23.873Z,15.63
2017-11-24T21:41:51.470Z,16.37
2017-11-24T21:44:24.029Z,15.93
2017-11-24T21:46:51.570Z,17.30
2017-11-24T21:49:19.153Z,16.83
2017-11-24T21:51:46.664Z,16.20
2017-11-24T21:54:14.284Z,15.17
2017-11-24T21:56:42.195Z,14.40
2017-11-24T21:59:10.025Z,14.53
2017-11-24T22:01:37.669Z,14.47
2017-11-24T22:04:05.968Z,15.10
2017-11-24T22:06:35.035Z,14.17
2017-11-24T22:11:55.051Z,14.50
2017-11-24T22:14:28.386Z,14.13
2017-11-24T22:16:56.193Z,12.30
2017-11-24T22:19:24.907Z,12.00
2017-11-24T22:21:54.280Z,12.20
2017-11-24T22:24:45.788Z,13.10
2017-11-24T22:27:13.523Z,11.60
2017-11-24T22:29:41.441Z,12.57
2017-11-24T22:32:09.309Z,12.30
2017-11-24T22:34:36.823Z,12.30
2017-11-24T22:37:04.403Z,12.17
2017-11-24T22:39:32.135Z,11.33
2017-11-24T22:42:03.199Z,12.50
2017-11-24T22:44:30.854Z,12.03
2017-11-24T22:46:58.989Z,12.17
2017-11-24T22:49:26.912Z,11.53
2017-11-24T22:51:54.707Z,11.10
2017-11-24T22:54:22.392Z,11.10
2017-11-24T22:56:50.337Z,10.87
2017-11-24T22:59:17.885Z,11.33
2017-11-24T23:01:45.393Z,10.90
2017-11-24T23:04:18.124Z,10.60
2017-11-24T23:06:46.193Z,10.67
2017-11-24T23:09:13.826Z,10.40
2017-11-24T23:11:41.479Z,10.57
2017-11-24T23:14:09.376Z,10.67
2017-11-24T23:16:36.953Z,9.80
2017-11-24T23:19:04.532Z,10.50
2017-11-24T23:21:32.179Z,10.43
2017-11-24T23:23:59.812Z,10.03
2017-11-24T23:26:27.549Z,9.83
2017-11-24T23:28:55.402Z,9.93
2017-11-24T23:31:22.988Z,10.07
2017-11-24T23:33:51.029Z,9.00
2017-11-24T23:36:18.589Z,9.10
2017-11-24T23:38:46.220Z,9.00
2017-11-24T23:41:13.933Z,9.40
2017-11-24T23:43:41.711Z,8.97
2017-11-24T23:46:09.278Z,9.37
2017-11-24T23:48:36.854Z,10.10
2017-11-24T23:51:04.400Z,9.03
2017-11-24T23:53:32.194Z,9.43
2017-11-24T23:55:59.871Z,9.40
2017-11-24T23:58:27.446Z,8.43
